sensor_id;sensor_type;location;lat;lon;timestamp;pressure;altitude;pressure_sealevel;temperature;humidity
58092;BME280;43896;48.178;11.578;2023-03-03T00:01:48;95927.91;;;4.00;64.03
58092;BME280;43896;48.178;11.578;2023-03-03T00:04:14;95931.25;;;4.13;63.82
58092;BME280;43896;48.178;11.578;2023-03-03T00:06:39;95918.69;;;4.07;63.62
58092;BME280;43896;48.178;11.578;2023-03-03T00:09:04;95913.00;;;3.91;64.40
58092;BME280;43896;48.178;11.578;2023-03-03T00:11:30;95873.78;;;3.59;64.39
58092;BME280;43896;48.178;11.578;2023-03-03T00:13:55;95930.38;;;3.90;64.06
58092;BME280;43896;48.178;11.578;2023-03-03T00:16:27;95936.31;;;4.04;64.31
58092;BME280;43896;48.178;11.578;2023-03-03T00:18:53;95906.84;;;3.92;64.11
58092;BME280;43896;48.178;11.578;2023-03-03T00:21:42;95928.28;;;4.07;63.74
58092;BME280;43896;48.178;11.578;2023-03-03T00:26:35;95922.47;;;4.03;64.17
58092;BME280;43896;48.178;11.578;2023-03-03T00:29:28;95899.06;;;3.92;64.26
58092;BME280;43896;48.178;11.578;2023-03-03T00:32:02;95916.94;;;4.08;64.52
58092;BME280;43896;48.178;11.578;2023-03-03T00:34:35;95894.78;;;3.91;64.34
58092;BME280;43896;48.178;11.578;2023-03-03T00:37:00;95917.38;;;4.02;64.54
58092;BME280;43896;48.178;11.578;2023-03-03T00:41:52;95927.91;;;4.00;64.13
58092;BME280;43896;48.178;11.578;2023-03-03T00:44:38;95939.28;;;3.99;64.54
58092;BME280;43896;48.178;11.578;2023-03-03T00:47:30;95935.34;;;3.93;64.23
58092;BME280;43896;48.178;11.578;2023-03-03T00:52:39;95928.88;;;3.99;64.82
58092;BME280;43896;48.178;11.578;2023-03-03T00:55:06;95924.59;;;3.87;64.93
58092;BME280;43896;48.178;11.578;2023-03-03T00:57:32;95934.03;;;3.88;64.57
58092;BME280;43896;48.178;11.578;2023-03-03T00:59:58;95896.75;;;3.65;64.43
58092;BME280;43896;48.178;11.578;2023-03-03T01:02:23;95938.41;;;3.87;64.79
58092;BME280;43896;48.178;11.578;2023-03-03T01:04:51;95940.97;;;3.76;65.10
58092;BME280;43896;48.178;11.578;2023-03-03T01:07:17;95939.06;;;3.78;65.52
58092;BME280;43896;48.178;11.578;2023-03-03T01:09:43;95924.97;;;3.58;65.11
58092;BME280;43896;48.178;11.578;2023-03-03T01:12:09;95932.56;;;3.72;65.22
58092;BME280;43896;48.178;11.578;2023-03-03T01:14:34;95914.28;;;3.50;65.71
58092;BME280;43896;48.178;11.578;2023-03-03T01:17:01;95904.72;;;3.50;65.72
58092;BME280;43896;48.178;11.578;2023-03-03T01:19:26;95899.63;;;3.49;65.48
58092;BME280;43896;48.178;11.578;2023-03-03T01:21:52;95886.50;;;3.50;65.92
58092;BME280;43896;48.178;11.578;2023-03-03T01:24:17;95931.91;;;3.82;65.29
58092;BME280;43896;48.178;11.578;2023-03-03T01:26:43;95921.59;;;3.80;65.35
58092;BME280;43896;48.178;11.578;2023-03-03T01:29:08;95928.50;;;3.92;65.40
58092;BME280;43896;48.178;11.578;2023-03-03T01:31:33;95927.19;;;3.98;64.83
58092;BME280;43896;48.178;11.578;2023-03-03T01:33:59;95881.03;;;3.66;65.12
58092;BME280;43896;48.178;11.578;2023-03-03T01:36:25;95884.56;;;3.65;65.38
58092;BME280;43896;48.178;11.578;2023-03-03T01:38:51;95911.91;;;3.82;65.70
58092;BME280;43896;48.178;11.578;2023-03-03T01:41:16;95892.03;;;3.70;64.75
58092;BME280;43896;48.178;11.578;2023-03-03T01:43:47;95921.03;;;3.88;65.13
58092;BME280;43896;48.178;11.578;2023-03-03T01:47:14;95921.03;;;3.88;65.44
58092;BME280;43896;48.178;11.578;2023-03-03T01:49:41;95908.72;;;3.90;65.13
58092;BME280;43896;48.178;11.578;2023-03-03T01:52:32;95895.59;;;3.80;65.03
58092;BME280;43896;48.178;11.578;2023-03-03T01:55:03;95890.13;;;3.72;65.75
58092;BME280;43896;48.178;11.578;2023-03-03T01:57:32;95921.25;;;3.85;65.84
58092;BME280;43896;48.178;11.578;2023-03-03T02:00:00;95902.22;;;3.84;65.15
58092;BME280;43896;48.178;11.578;2023-03-03T02:02:26;95873.44;;;3.63;66.10
58092;BME280;43896;48.178;11.578;2023-03-03T02:04:52;95903.16;;;3.83;66.14
58092;BME280;43896;48.178;11.578;2023-03-03T02:07:18;95897.81;;;3.73;66.29
58092;BME280;43896;48.178;11.578;2023-03-03T02:10:10;95908.72;;;3.90;65.94
58092;BME280;43896;48.178;11.578;2023-03-03T02:12:48;95907.09;;;3.89;65.90
58092;BME280;43896;48.178;11.578;2023-03-03T02:15:31;95908.72;;;3.90;65.57
58092;BME280;43896;48.178;11.578;2023-03-03T02:17:59;95913.56;;;3.83;66.41
58092;BME280;43896;48.178;11.578;2023-03-03T02:23:06;95907.78;;;3.91;65.68
58092;BME280;43896;48.178;11.578;2023-03-03T02:28:23;95913.00;;;3.91;65.87
58092;BME280;43896;48.178;11.578;2023-03-03T02:30:53;95904.91;;;3.71;66.83
58092;BME280;43896;48.178;11.578;2023-03-03T02:33:19;95891.16;;;3.58;66.25
58092;BME280;43896;48.178;11.578;2023-03-03T02:35:44;95909.63;;;3.66;67.03
58092;BME280;43896;48.178;11.578;2023-03-03T02:40:59;95911.75;;;3.72;67.21
58092;BME280;43896;48.178;11.578;2023-03-03T02:43:32;95903.03;;;3.73;66.49
58092;BME280;43896;48.178;11.578;2023-03-03T02:46:01;95904.81;;;3.84;66.50
58092;BME280;43896;48.178;11.578;2023-03-03T02:48:26;95902.09;;;3.86;66.51
58092;BME280;43896;48.178;11.578;2023-03-03T02:50:51;95902.97;;;3.98;66.66
58092;BME280;43896;48.178;11.578;2023-03-03T02:53:17;95888.38;;;3.95;65.83
58092;BME280;43896;48.178;11.578;2023-03-03T02:55:42;95878.34;;;3.90;66.30
58092;BME280;43896;48.178;11.578;2023-03-03T02:58:07;95868.28;;;3.86;65.71
58092;BME280;43896;48.178;11.578;2023-03-03T03:00:33;95896.22;;;4.06;66.14
58092;BME280;43896;48.178;11.578;2023-03-03T03:02:58;95895.03;;;4.10;66.13
58092;BME280;43896;48.178;11.578;2023-03-03T03:05:24;95901.44;;;4.18;65.78
58092;BME280;43896;48.178;11.578;2023-03-03T03:07:49;95903.44;;;4.14;66.19
58092;BME280;43896;48.178;11.578;2023-03-03T03:10:14;95874.81;;;4.03;65.54
58092;BME280;43896;48.178;11.578;2023-03-03T03:12:40;95882.50;;;4.16;66.18
58092;BME280;43896;48.178;11.578;2023-03-03T03:15:05;95897.88;;;4.19;65.59
58092;BME280;43896;48.178;11.578;2023-03-03T03:17:34;95872.22;;;4.03;65.77
58092;BME280;43896;48.178;11.578;2023-03-03T03:19:59;95897.66;;;4.22;65.47
58092;BME280;43896;48.178;11.578;2023-03-03T03:22:25;95891.00;;;4.18;65.29
58092;BME280;43896;48.178;11.578;2023-03-03T03:24:50;95890.31;;;4.27;65.78
58092;BME280;43896;48.178;11.578;2023-03-03T03:27:15;95903.81;;;4.32;65.00
58092;BME280;43896;48.178;11.578;2023-03-03T03:29:40;95901.22;;;4.32;64.98
58092;BME280;43896;48.178;11.578;2023-03-03T03:32:06;95903.13;;;4.30;65.69
58092;BME280;43896;48.178;11.578;2023-03-03T03:34:31;95909.00;;;4.21;65.45
58092;BME280;43896;48.178;11.578;2023-03-03T03:36:56;95885.69;;;4.08;66.02
58092;BME280;43896;48.178;11.578;2023-03-03T03:39:21;95885.09;;;4.16;65.82
58092;BME280;43896;48.178;11.578;2023-03-03T03:41:47;95901.09;;;4.22;65.92
58092;BME280;43896;48.178;11.578;2023-03-03T03:44:12;95899.91;;;4.26;65.97
58092;BME280;43896;48.178;11.578;2023-03-03T03:46:37;95895.75;;;4.24;65.72
58092;BME280;43896;48.178;11.578;2023-03-03T03:49:03;95894.25;;;4.21;65.46
58092;BME280;43896;48.178;11.578;2023-03-03T03:51:28;95889.16;;;4.20;65.61
58092;BME280;43896;48.178;11.578;2023-03-03T03:53:53;95905.00;;;4.39;65.52
58092;BME280;43896;48.178;11.578;2023-03-03T03:56:18;95885.00;;;4.28;65.74
58092;BME280;43896;48.178;11.578;2023-03-03T03:58:44;95896.94;;;4.31;65.72
58092;BME280;43896;48.178;11.578;2023-03-03T04:01:09;95907.25;;;4.21;66.65
58092;BME280;43896;48.178;11.578;2023-03-03T04:03:34;95900.97;;;4.24;66.34
58092;BME280;43896;48.178;11.578;2023-03-03T04:06:00;95894.09;;;4.34;65.66
58092;BME280;43896;48.178;11.578;2023-03-03T04:08:25;95881.44;;;4.07;66.03
58092;BME280;43896;48.178;11.578;2023-03-03T04:10:51;95885.22;;;4.14;66.36
58092;BME280;43896;48.178;11.578;2023-03-03T04:13:16;95894.34;;;4.31;66.45
58092;BME280;43896;48.178;11.578;2023-03-03T04:15:41;95897.66;;;4.33;65.79
58092;BME280;43896;48.178;11.578;2023-03-03T04:18:07;95911.38;;;4.46;65.44
58092;BME280;43896;48.178;11.578;2023-03-03T04:20:32;95883.00;;;4.32;65.42
58092;BME280;43896;48.178;11.578;2023-03-03T04:22:57;95906.41;;;4.43;65.29
58092;BME280;43896;48.178;11.578;2023-03-03T04:25:23;95904.84;;;4.07;66.86
58092;BME280;43896;48.178;11.578;2023-03-03T04:27:48;95883.47;;;4.15;66.04
58092;BME280;43896;48.178;11.578;2023-03-03T04:30:15;95907.00;;;4.36;65.77
58092;BME280;43896;48.178;11.578;2023-03-03T04:32:40;95906.91;;;4.37;65.37
58092;BME280;43896;48.178;11.578;2023-03-03T04:35:06;95898.63;;;4.32;65.44
58092;BME280;43896;48.178;11.578;2023-03-03T04:37:32;95915.66;;;4.36;65.03
58092;BME280;43896;48.178;11.578;2023-03-03T04:39:58;95879.19;;;4.13;65.47
58092;BME280;43896;48.178;11.578;2023-03-03T04:42:23;95886.53;;;4.31;65.51
58092;BME280;43896;48.178;11.578;2023-03-03T04:44:48;95871.97;;;4.40;64.87
58092;BME280;43896;48.178;11.578;2023-03-03T04:47:14;95884.53;;;4.46;64.32
58092;BME280;43896;48.178;11.578;2023-03-03T04:49:39;95901.56;;;4.61;64.66
58092;BME280;43896;48.178;11.578;2023-03-03T04:52:04;95880.72;;;4.50;64.83
58092;BME280;43896;48.178;11.578;2023-03-03T04:54:30;95900.59;;;4.62;64.30
58092;BME280;43896;48.178;11.578;2023-03-03T04:56:55;95910.19;;;4.62;65.16
58092;BME280;43896;48.178;11.578;2023-03-03T04:59:20;95900.50;;;4.53;65.26
58092;BME280;43896;48.178;11.578;2023-03-03T05:01:46;95910.44;;;4.59;64.70
58092;BME280;43896;48.178;11.578;2023-03-03T05:04:11;95908.78;;;4.58;64.18
58092;BME280;43896;48.178;11.578;2023-03-03T05:06:36;95904.03;;;4.51;64.28
58092;BME280;43896;48.178;11.578;2023-03-03T05:09:02;95912.81;;;4.50;65.02
58092;BME280;43896;48.178;11.578;2023-03-03T05:11:28;95904.53;;;4.45;65.05
58092;BME280;43896;48.178;11.578;2023-03-03T05:13:53;95873.63;;;4.29;65.35
58092;BME280;43896;48.178;11.578;2023-03-03T05:16:18;95905.00;;;4.39;65.30
58092;BME280;43896;48.178;11.578;2023-03-03T05:18:43;95891.50;;;4.34;64.73
58092;BME280;43896;48.178;11.578;2023-03-03T05:21:10;95885.94;;;4.39;64.74
58092;BME280;43896;48.178;11.578;2023-03-03T05:23:35;95895.16;;;4.43;65.04
58092;BME280;43896;48.178;11.578;2023-03-03T05:26:01;95882.75;;;4.35;65.33
58092;BME280;43896;48.178;11.578;2023-03-03T05:28:26;95897.91;;;4.53;64.99
58092;BME280;43896;48.178;11.578;2023-03-03T05:30:51;95907.13;;;4.57;64.71
58092;BME280;43896;48.178;11.578;2023-03-03T05:33:17;95907.72;;;4.60;64.59
58092;BME280;43896;48.178;11.578;2023-03-03T05:35:42;95917.19;;;4.61;64.43
58092;BME280;43896;48.178;11.578;2023-03-03T05:38:08;95930.91;;;4.75;64.87
58092;BME280;43896;48.178;11.578;2023-03-03T05:40:33;95908.28;;;4.64;64.54
58092;BME280;43896;48.178;11.578;2023-03-03T05:42:59;95902.41;;;4.50;64.56
58092;BME280;43896;48.178;11.578;2023-03-03T05:45:24;95921.09;;;4.67;63.82
58092;BME280;43896;48.178;11.578;2023-03-03T05:47:50;95903.09;;;4.64;64.36
58092;BME280;43896;48.178;11.578;2023-03-03T05:50:16;95936.59;;;4.80;63.90
58092;BME280;43896;48.178;11.578;2023-03-03T05:52:42;95924.53;;;4.45;64.72
58092;BME280;43896;48.178;11.578;2023-03-03T05:55:08;95937.69;;;4.66;64.50
58092;BME280;43896;48.178;11.578;2023-03-03T05:57:33;95915.91;;;4.56;64.73
58092;BME280;43896;48.178;11.578;2023-03-03T06:00:00;95936.84;;;4.65;64.11
58092;BME280;43896;48.178;11.578;2023-03-03T06:02:26;95947.16;;;4.78;63.98
58092;BME280;43896;48.178;11.578;2023-03-03T06:04:51;95942.75;;;4.79;63.74
58092;BME280;43896;48.178;11.578;2023-03-03T06:07:16;95943.69;;;4.78;64.07
58092;BME280;43896;48.178;11.578;2023-03-03T06:09:41;95956.47;;;4.81;64.56
58092;BME280;43896;48.178;11.578;2023-03-03T06:12:07;95954.00;;;4.79;64.45
58092;BME280;43896;48.178;11.578;2023-03-03T06:14:32;95942.41;;;4.72;64.50
58092;BME280;43896;48.178;11.578;2023-03-03T06:16:57;95957.56;;;4.78;63.95
58092;BME280;43896;48.178;11.578;2023-03-03T06:19:23;95950.09;;;4.51;64.35
58092;BME280;43896;48.178;11.578;2023-03-03T06:21:49;95962.41;;;4.72;64.04
58092;BME280;43896;48.178;11.578;2023-03-03T06:24:14;95953.78;;;4.71;64.20
58092;BME280;43896;48.178;11.578;2023-03-03T06:26:40;95973.88;;;4.92;63.35
58092;BME280;43896;48.178;11.578;2023-03-03T06:29:05;95970.59;;;4.78;64.11
58092;BME280;43896;48.178;11.578;2023-03-03T06:31:31;95976.75;;;4.88;63.94
58092;BME280;43896;48.178;11.578;2023-03-03T06:33:56;95967.75;;;4.81;64.25
58092;BME280;43896;48.178;11.578;2023-03-03T06:36:21;95959.56;;;4.86;63.19
58092;BME280;43896;48.178;11.578;2023-03-03T06:38:47;95976.88;;;4.87;64.31
58092;BME280;43896;48.178;11.578;2023-03-03T06:41:13;95985.38;;;4.78;64.50
58092;BME280;43896;48.178;11.578;2023-03-03T06:43:38;95975.44;;;4.83;63.57
58092;BME280;43896;48.178;11.578;2023-03-03T06:46:04;95969.50;;;4.81;63.34
58092;BME280;43896;48.178;11.578;2023-03-03T06:48:31;95973.09;;;4.80;63.58
58092;BME280;43896;48.178;11.578;2023-03-03T06:50:58;95963.72;;;4.88;63.53
58092;BME280;43896;48.178;11.578;2023-03-03T06:53:25;95962.97;;;4.98;63.28
58092;BME280;43896;48.178;11.578;2023-03-03T06:55:50;95971.75;;;4.97;63.44
58092;BME280;43896;48.178;11.578;2023-03-03T06:58:18;95981.94;;;5.00;62.81
58092;BME280;43896;48.178;11.578;2023-03-03T07:00:45;95974.81;;;5.02;62.69
58092;BME280;43896;48.178;11.578;2023-03-03T07:03:17;95977.81;;;4.86;62.93
58092;BME280;43896;48.178;11.578;2023-03-03T07:05:43;95987.06;;;4.90;63.52
58092;BME280;43896;48.178;11.578;2023-03-03T07:08:16;95970.44;;;4.91;63.06
58092;BME280;43896;48.178;11.578;2023-03-03T07:10:42;95976.47;;;5.03;62.86
58092;BME280;43896;48.178;11.578;2023-03-03T07:13:24;95991.63;;;5.20;63.24
58092;BME280;43896;48.178;11.578;2023-03-03T07:15:55;96000.66;;;4.94;63.02
58092;BME280;43896;48.178;11.578;2023-03-03T07:20:52;95999.13;;;4.91;63.54
58092;BME280;43896;48.178;11.578;2023-03-03T07:23:25;96010.75;;;4.87;64.64
58092;BME280;43896;48.178;11.578;2023-03-03T07:25:51;96010.84;;;4.85;64.29
58092;BME280;43896;48.178;11.578;2023-03-03T07:28:25;96006.59;;;4.73;64.19
58092;BME280;43896;48.178;11.578;2023-03-03T07:30:51;96012.97;;;4.92;64.21
58092;BME280;43896;48.178;11.578;2023-03-03T07:33:26;95995.41;;;4.48;64.87
58092;BME280;43896;48.178;11.578;2023-03-03T07:35:54;96019.72;;;4.49;65.16
58092;BME280;43896;48.178;11.578;2023-03-03T07:38:30;96020.56;;;4.72;64.74
58092;BME280;43896;48.178;11.578;2023-03-03T07:40:58;96023.19;;;4.83;64.53
58092;BME280;43896;48.178;11.578;2023-03-03T07:45:52;96033.00;;;4.80;65.22
58092;BME280;43896;48.178;11.578;2023-03-03T07:48:34;96031.94;;;4.94;64.24
58092;BME280;43896;48.178;11.578;2023-03-03T07:51:11;96025.78;;;4.95;63.86
58092;BME280;43896;48.178;11.578;2023-03-03T07:53:37;96026.72;;;4.82;64.58
58092;BME280;43896;48.178;11.578;2023-03-03T07:56:21;96030.88;;;5.07;64.10
58092;BME280;43896;48.178;11.578;2023-03-03T07:58:50;96013.34;;;5.10;63.25
58092;BME280;43896;48.178;11.578;2023-03-03T08:01:35;96012.47;;;5.20;63.34
58092;BME280;43896;48.178;11.578;2023-03-03T08:06:47;96033.94;;;5.24;62.37
58092;BME280;43896;48.178;11.578;2023-03-03T08:14:27;96009.16;;;5.18;62.56
58092;BME280;43896;48.178;11.578;2023-03-03T08:16:54;96022.41;;;5.49;62.20
58092;BME280;43896;48.178;11.578;2023-03-03T08:19:19;96019.44;;;5.31;62.48
58092;BME280;43896;48.178;11.578;2023-03-03T08:21:45;96023.31;;;5.59;61.88
58092;BME280;43896;48.178;11.578;2023-03-03T08:24:10;96019.22;;;5.34;62.47
58092;BME280;43896;48.178;11.578;2023-03-03T08:26:36;96036.59;;;5.68;62.00
58092;BME280;43896;48.178;11.578;2023-03-03T08:29:02;96047.81;;;5.79;61.83
58092;BME280;43896;48.178;11.578;2023-03-03T08:31:27;96040.56;;;5.83;60.82
58092;BME280;43896;48.178;11.578;2023-03-03T08:33:53;96043.13;;;5.94;61.13
58092;BME280;43896;48.178;11.578;2023-03-03T08:36:18;96033.66;;;5.93;61.18
58092;BME280;43896;48.178;11.578;2023-03-03T08:38:44;96023.47;;;5.90;61.62
58092;BME280;43896;48.178;11.578;2023-03-03T08:41:10;96032.47;;;5.97;61.12
58092;BME280;43896;48.178;11.578;2023-03-03T08:43:35;96034.84;;;6.00;61.16
58092;BME280;43896;48.178;11.578;2023-03-03T08:46:02;96038.03;;;5.93;60.83
58092;BME280;43896;48.178;11.578;2023-03-03T08:48:30;96036.25;;;6.05;60.18
58092;BME280;43896;48.178;11.578;2023-03-03T08:50:57;96024.78;;;5.85;61.13
58092;BME280;43896;48.178;11.578;2023-03-03T08:53:23;96060.44;;;6.07;60.67
58092;BME280;43896;48.178;11.578;2023-03-03T08:55:58;96060.16;;;6.21;60.62
58092;BME280;43896;48.178;11.578;2023-03-03T08:58:23;96056.25;;;6.15;60.71
58092;BME280;43896;48.178;11.578;2023-03-03T09:00:48;96046.19;;;6.11;60.98
58092;BME280;43896;48.178;11.578;2023-03-03T09:03:14;96038.34;;;5.67;62.02
58092;BME280;43896;48.178;11.578;2023-03-03T09:05:39;96054.91;;;5.22;64.11
58092;BME280;43896;48.178;11.578;2023-03-03T09:08:07;96057.00;;;5.51;63.11
58092;BME280;43896;48.178;11.578;2023-03-03T09:10:33;96057.41;;;5.24;64.03
58092;BME280;43896;48.178;11.578;2023-03-03T09:13:03;96052.31;;;5.77;62.76
58092;BME280;43896;48.178;11.578;2023-03-03T09:15:33;96041.03;;;5.88;62.22
58092;BME280;43896;48.178;11.578;2023-03-03T09:18:08;96054.72;;;6.13;61.45
58092;BME280;43896;48.178;11.578;2023-03-03T09:20:37;96064.25;;;6.35;60.98
58092;BME280;43896;48.178;11.578;2023-03-03T09:25:53;96062.91;;;5.64;62.30
58092;BME280;43896;48.178;11.578;2023-03-03T09:30:50;96079.56;;;5.30;64.68
58092;BME280;43896;48.178;11.578;2023-03-03T09:33:39;96070.06;;;5.17;64.86
58092;BME280;43896;48.178;11.578;2023-03-03T09:36:20;96052.19;;;5.79;62.20
58092;BME280;43896;48.178;11.578;2023-03-03T09:38:47;96043.09;;;5.62;62.54
58092;BME280;43896;48.178;11.578;2023-03-03T09:44:03;96083.22;;;6.05;61.57
58092;BME280;43896;48.178;11.578;2023-03-03T09:47:05;96054.00;;;5.67;62.13
58092;BME280;43896;48.178;11.578;2023-03-03T09:49:35;96085.13;;;6.14;61.88
58092;BME280;43896;48.178;11.578;2023-03-03T09:57:34;96090.59;;;5.99;62.22
58092;BME280;43896;48.178;11.578;2023-03-03T10:00:23;96087.50;;;6.06;61.86
58092;BME280;43896;48.178;11.578;2023-03-03T10:03:07;96081.19;;;6.41;61.46
58092;BME280;43896;48.178;11.578;2023-03-03T10:05:51;96075.03;;;6.63;59.96
58092;BME280;43896;48.178;11.578;2023-03-03T10:13:45;96090.94;;;6.38;61.37
58092;BME280;43896;48.178;11.578;2023-03-03T10:22:16;96106.59;;;6.17;62.04
58092;BME280;43896;48.178;11.578;2023-03-03T10:28:01;96105.94;;;6.25;61.58
58092;BME280;43896;48.178;11.578;2023-03-03T10:30:46;96084.25;;;6.46;59.81
58092;BME280;43896;48.178;11.578;2023-03-03T10:38:40;96090.19;;;6.48;60.89
58092;BME280;43896;48.178;11.578;2023-03-03T10:41:39;96099.69;;;6.49;60.27
58092;BME280;43896;48.178;11.578;2023-03-03T10:44:02;96099.34;;;7.05;59.24
58092;BME280;43896;48.178;11.578;2023-03-03T10:46:38;96090.78;;;7.24;57.64
58092;BME280;43896;48.178;11.578;2023-03-03T10:49:31;96097.78;;;7.24;57.58
58092;BME280;43896;48.178;11.578;2023-03-03T10:58:01;96093.25;;;7.66;56.34
58092;BME280;43896;48.178;11.578;2023-03-03T11:00:50;96088.84;;;7.67;55.98
58092;BME280;43896;48.178;11.578;2023-03-03T11:06:41;96107.13;;;7.57;56.95
58092;BME280;43896;48.178;11.578;2023-03-03T11:11:58;96108.03;;;7.37;58.54
58092;BME280;43896;48.178;11.578;2023-03-03T11:14:37;96103.88;;;7.03;58.89
58092;BME280;43896;48.178;11.578;2023-03-03T11:23:09;96105.28;;;6.65;60.49
58092;BME280;43896;48.178;11.578;2023-03-03T11:36:33;96088.72;;;7.28;58.17
58092;BME280;43896;48.178;11.578;2023-03-03T11:39:13;96108.41;;;7.32;58.58
58092;BME280;43896;48.178;11.578;2023-03-03T11:44:46;96069.75;;;7.86;56.09
58092;BME280;43896;48.178;11.578;2023-03-03T11:47:42;96092.94;;;8.10;56.53
58092;BME280;43896;48.178;11.578;2023-03-03T11:50:28;96080.09;;;8.26;56.40
58092;BME280;43896;48.178;11.578;2023-03-03T11:55:42;96059.81;;;8.38;54.73
58092;BME280;43896;48.178;11.578;2023-03-03T12:00:50;96071.41;;;8.16;54.81
58092;BME280;43896;48.178;11.578;2023-03-03T12:03:46;96090.03;;;8.33;54.46
58092;BME280;43896;48.178;11.578;2023-03-03T12:09:25;96078.13;;;7.99;55.99
58092;BME280;43896;48.178;11.578;2023-03-03T12:12:23;96064.38;;;8.26;54.61
58092;BME280;43896;48.178;11.578;2023-03-03T12:15:26;96066.59;;;8.41;54.18
58092;BME280;43896;48.178;11.578;2023-03-03T12:18:11;96068.25;;;8.52;53.62
58092;BME280;43896;48.178;11.578;2023-03-03T12:20:57;96066.06;;;8.57;53.97
58092;BME280;43896;48.178;11.578;2023-03-03T12:23:49;96069.50;;;8.57;53.71
58092;BME280;43896;48.178;11.578;2023-03-03T12:29:26;96074.19;;;8.63;53.63
58092;BME280;43896;48.178;11.578;2023-03-03T12:34:35;96069.63;;;8.75;53.50
58092;BME280;43896;48.178;11.578;2023-03-03T12:37:19;96071.56;;;8.73;53.22
58092;BME280;43896;48.178;11.578;2023-03-03T12:42:24;96062.47;;;9.15;51.64
58092;BME280;43896;48.178;11.578;2023-03-03T12:44:58;96063.91;;;9.37;51.89
58092;BME280;43896;48.178;11.578;2023-03-03T12:47:35;96036.59;;;9.57;51.30
58092;BME280;43896;48.178;11.578;2023-03-03T12:53:11;96058.44;;;9.76;50.16
58092;BME280;43896;48.178;11.578;2023-03-03T12:56:01;96049.34;;;9.70;50.27
58092;BME280;43896;48.178;11.578;2023-03-03T12:58:46;96042.50;;;9.60;49.86
58092;BME280;43896;48.178;11.578;2023-03-03T13:01:17;96056.03;;;9.65;50.24
58092;BME280;43896;48.178;11.578;2023-03-03T13:12:12;96045.69;;;9.35;51.28
58092;BME280;43896;48.178;11.578;2023-03-03T13:14:49;96052.00;;;9.43;51.81
58092;BME280;43896;48.178;11.578;2023-03-03T13:17:29;96053.63;;;9.44;51.62
58092;BME280;43896;48.178;11.578;2023-03-03T13:19:58;96041.81;;;9.30;51.93
58092;BME280;43896;48.178;11.578;2023-03-03T13:22:38;96043.91;;;9.26;51.90
58092;BME280;43896;48.178;11.578;2023-03-03T13:25:34;96044.00;;;9.34;51.34
58092;BME280;43896;48.178;11.578;2023-03-03T13:28:29;96038.38;;;9.57;51.17
58092;BME280;43896;48.178;11.578;2023-03-03T13:31:04;96032.78;;;9.88;50.49
58092;BME280;43896;48.178;11.578;2023-03-03T13:33:35;96025.91;;;9.87;49.72
58092;BME280;43896;48.178;11.578;2023-03-03T13:36:06;96024.56;;;10.01;50.04
58092;BME280;43896;48.178;11.578;2023-03-03T13:38:37;96039.84;;;10.05;50.06
58092;BME280;43896;48.178;11.578;2023-03-03T13:41:23;96033.13;;;10.39;49.33
58092;BME280;43896;48.178;11.578;2023-03-03T13:43:58;96037.38;;;10.58;48.75
58092;BME280;43896;48.178;11.578;2023-03-03T14:05:44;96007.72;;;11.00;47.35
58092;BME280;43896;48.178;11.578;2023-03-03T14:10:47;96007.16;;;11.22;46.99
58092;BME280;43896;48.178;11.578;2023-03-03T14:13:31;96010.63;;;11.23;46.68
58092;BME280;43896;48.178;11.578;2023-03-03T14:16:09;96002.53;;;11.16;46.74
58092;BME280;43896;48.178;11.578;2023-03-03T14:21:13;95994.34;;;11.19;46.76
58092;BME280;43896;48.178;11.578;2023-03-03T14:26:24;95996.63;;;11.14;46.48
58092;BME280;43896;48.178;11.578;2023-03-03T14:28:50;96001.00;;;11.40;46.06
58092;BME280;43896;48.178;11.578;2023-03-03T14:31:29;95990.78;;;11.37;46.47
58092;BME280;43896;48.178;11.578;2023-03-03T14:34:14;95997.56;;;11.48;46.05
58092;BME280;43896;48.178;11.578;2023-03-03T14:36:51;96001.66;;;11.42;45.95
58092;BME280;43896;48.178;11.578;2023-03-03T14:39:29;95997.16;;;11.34;46.60
58092;BME280;43896;48.178;11.578;2023-03-03T14:41:57;95988.22;;;11.19;46.42
58092;BME280;43896;48.178;11.578;2023-03-03T14:44:28;95973.03;;;11.04;46.58
58092;BME280;43896;48.178;11.578;2023-03-03T14:49:30;95980.81;;;11.14;46.60
58092;BME280;43896;48.178;11.578;2023-03-03T14:52:24;95999.44;;;11.29;46.41
58092;BME280;43896;48.178;11.578;2023-03-03T14:54:52;95995.09;;;10.77;47.46
58092;BME280;43896;48.178;11.578;2023-03-03T15:02:30;95997.56;;;10.53;48.74
58092;BME280;43896;48.178;11.578;2023-03-03T15:05:21;96001.94;;;10.70;48.39
58092;BME280;43896;48.178;11.578;2023-03-03T15:07:50;95994.06;;;10.70;47.95
58092;BME280;43896;48.178;11.578;2023-03-03T15:10:34;96003.78;;;10.69;47.94
58092;BME280;43896;48.178;11.578;2023-03-03T15:18:24;95987.19;;;10.51;48.41
58092;BME280;43896;48.178;11.578;2023-03-03T15:34:23;96007.88;;;10.46;48.70
58092;BME280;43896;48.178;11.578;2023-03-03T15:42:13;96008.16;;;10.07;50.08
58092;BME280;43896;48.178;11.578;2023-03-03T15:53:05;95990.44;;;9.73;50.74
58092;BME280;43896;48.178;11.578;2023-03-03T15:55:58;96005.41;;;9.90;51.23
58092;BME280;43896;48.178;11.578;2023-03-03T15:58:49;96003.81;;;9.80;51.66
58092;BME280;43896;48.178;11.578;2023-03-03T16:01:26;96002.03;;;9.80;51.82
58092;BME280;43896;48.178;11.578;2023-03-03T16:03:59;96006.81;;;9.67;52.67
58092;BME280;43896;48.178;11.578;2023-03-03T16:07:01;96007.09;;;9.64;53.01
58092;BME280;43896;48.178;11.578;2023-03-03T16:12:46;96001.09;;;8.98;53.94
58092;BME280;43896;48.178;11.578;2023-03-03T16:18:36;96020.09;;;9.10;54.99
58092;BME280;43896;48.178;11.578;2023-03-03T16:21:30;96015.31;;;9.23;53.84
58092;BME280;43896;48.178;11.578;2023-03-03T16:24:01;96016.53;;;9.01;54.79
58092;BME280;43896;48.178;11.578;2023-03-03T16:26:40;96019.81;;;9.13;53.93
58092;BME280;43896;48.178;11.578;2023-03-03T16:29:34;96014.75;;;9.29;54.07
58092;BME280;43896;48.178;11.578;2023-03-03T16:32:09;96017.38;;;9.29;53.57
58092;BME280;43896;48.178;11.578;2023-03-03T16:34:57;95994.81;;;9.09;53.40
58092;BME280;43896;48.178;11.578;2023-03-03T16:37:50;96010.66;;;9.17;53.68